sensor_id;sensor_type;location;lat;lon;timestamp;temperature;humidity
9425;DHT22;17139;52.140;11.636;2022-12-07T00:01:17;0.50;71.30
9425;DHT22;17139;52.140;11.636;2022-12-07T00:03:46;0.50;71.30
9425;DHT22;17139;52.140;11.636;2022-12-07T00:06:15;0.50;71.40
9425;DHT22;17139;52.140;11.636;2022-12-07T00:08:43;0.50;71.40
9425;DHT22;17139;52.140;11.636;2022-12-07T00:11:14;0.50;71.40
9425;DHT22;17139;52.140;11.636;2022-12-07T00:13:42;0.80;71.00
9425;DHT22;17139;52.140;11.636;2022-12-07T00:16:11;0.80;70.50
9425;DHT22;17139;52.140;11.636;2022-12-07T00:18:39;0.80;70.90
9425;DHT22;17139;52.140;11.636;2022-12-07T00:21:11;0.70;71.00
9425;DHT22;17139;52.140;11.636;2022-12-07T00:23:39;0.70;71.20
9425;DHT22;17139;52.140;11.636;2022-12-07T00:26:07;0.70;72.00
9425;DHT22;17139;52.140;11.636;2022-12-07T00:28:36;0.80;71.40
9425;DHT22;17139;52.140;11.636;2022-12-07T00:31:05;0.80;71.20
9425;DHT22;17139;52.140;11.636;2022-12-07T00:33:33;0.90;71.20
9425;DHT22;17139;52.140;11.636;2022-12-07T00:36:01;0.90;71.00
9425;DHT22;17139;52.140;11.636;2022-12-07T00:38:31;1.00;70.90
9425;DHT22;17139;52.140;11.636;2022-12-07T00:40:59;1.00;70.80
9425;DHT22;17139;52.140;11.636;2022-12-07T00:43:27;1.10;70.80
9425;DHT22;17139;52.140;11.636;2022-12-07T00:45:55;1.10;70.60
9425;DHT22;17139;52.140;11.636;2022-12-07T00:48:23;1.70;69.80
9425;DHT22;17139;52.140;11.636;2022-12-07T00:50:50;1.60;69.30
9425;DHT22;17139;52.140;11.636;2022-12-07T00:53:18;1.40;69.60
9425;DHT22;17139;52.140;11.636;2022-12-07T00:55:45;1.40;70.00
9425;DHT22;17139;52.140;11.636;2022-12-07T00:58:13;1.30;70.10
9425;DHT22;17139;52.140;11.636;2022-12-07T01:00:42;1.30;70.30
9425;DHT22;17139;52.140;11.636;2022-12-07T01:03:12;1.20;70.20
9425;DHT22;17139;52.140;11.636;2022-12-07T01:05:40;1.30;70.40
9425;DHT22;17139;52.140;11.636;2022-12-07T01:08:15;1.20;70.30
9425;DHT22;17139;52.140;11.636;2022-12-07T01:10:42;1.20;70.40
9425;DHT22;17139;52.140;11.636;2022-12-07T01:13:09;1.20;70.50
9425;DHT22;17139;52.140;11.636;2022-12-07T01:15:39;1.20;70.50
9425;DHT22;17139;52.140;11.636;2022-12-07T01:18:06;1.20;70.50
9425;DHT22;17139;52.140;11.636;2022-12-07T01:20:35;1.20;70.50
9425;DHT22;17139;52.140;11.636;2022-12-07T01:23:02;1.20;70.50
9425;DHT22;17139;52.140;11.636;2022-12-07T01:25:29;1.60;70.30
9425;DHT22;17139;52.140;11.636;2022-12-07T01:27:56;1.60;69.70
9425;DHT22;17139;52.140;11.636;2022-12-07T01:30:23;1.60;69.80
9425;DHT22;17139;52.140;11.636;2022-12-07T01:32:50;1.50;70.00
9425;DHT22;17139;52.140;11.636;2022-12-07T01:35:17;1.60;70.20
9425;DHT22;17139;52.140;11.636;2022-12-07T01:37:46;1.60;70.20
9425;DHT22;17139;52.140;11.636;2022-12-07T01:40:13;1.60;70.20
9425;DHT22;17139;52.140;11.636;2022-12-07T01:42:40;1.60;70.30
9425;DHT22;17139;52.140;11.636;2022-12-07T01:48:12;1.60;70.10
9425;DHT22;17139;52.140;11.636;2022-12-07T01:50:40;1.70;70.30
9425;DHT22;17139;52.140;11.636;2022-12-07T01:53:10;1.60;70.20
9425;DHT22;17139;52.140;11.636;2022-12-07T01:55:42;1.70;70.30
9425;DHT22;17139;52.140;11.636;2022-12-07T01:58:10;1.80;70.20
9425;DHT22;17139;52.140;11.636;2022-12-07T02:00:39;1.80;69.90
9425;DHT22;17139;52.140;11.636;2022-12-07T02:03:11;2.30;69.40
9425;DHT22;17139;52.140;11.636;2022-12-07T02:05:41;2.20;68.80
9425;DHT22;17139;52.140;11.636;2022-12-07T02:08:12;2.10;69.30
9425;DHT22;17139;52.140;11.636;2022-12-07T02:10:40;2.00;69.60
9425;DHT22;17139;52.140;11.636;2022-12-07T02:13:11;1.90;69.80
9425;DHT22;17139;52.140;11.636;2022-12-07T02:18:42;2.00;70.20
9425;DHT22;17139;52.140;11.636;2022-12-07T02:21:15;1.90;70.10
9425;DHT22;17139;52.140;11.636;2022-12-07T02:24:06;1.90;70.10
9425;DHT22;17139;52.140;11.636;2022-12-07T02:26:51;2.00;70.20
9425;DHT22;17139;52.140;11.636;2022-12-07T02:29:25;1.90;70.30
9425;DHT22;17139;52.140;11.636;2022-12-07T02:31:59;2.00;70.40
9425;DHT22;17139;52.140;11.636;2022-12-07T02:34:38;2.30;70.20
9425;DHT22;17139;52.140;11.636;2022-12-07T02:37:12;2.30;69.70
9425;DHT22;17139;52.140;11.636;2022-12-07T02:39:45;2.20;69.90
9425;DHT22;17139;52.140;11.636;2022-12-07T02:42:17;2.90;68.70
9425;DHT22;17139;52.140;11.636;2022-12-07T02:44:48;2.80;68.50
9425;DHT22;17139;52.140;11.636;2022-12-07T02:47:16;2.60;69.10
9425;DHT22;17139;52.140;11.636;2022-12-07T02:49:44;2.50;69.50
9425;DHT22;17139;52.140;11.636;2022-12-07T02:52:12;2.40;69.70
9425;DHT22;17139;52.140;11.636;2022-12-07T02:54:39;2.40;70.00
9425;DHT22;17139;52.140;11.636;2022-12-07T02:57:24;2.30;70.00
9425;DHT22;17139;52.140;11.636;2022-12-07T03:00:03;2.30;70.10
9425;DHT22;17139;52.140;11.636;2022-12-07T03:02:39;2.30;70.20
9425;DHT22;17139;52.140;11.636;2022-12-07T03:05:26;2.30;70.30
9425;DHT22;17139;52.140;11.636;2022-12-07T03:08:01;2.30;70.20
9425;DHT22;17139;52.140;11.636;2022-12-07T03:10:35;2.30;70.40
9425;DHT22;17139;52.140;11.636;2022-12-07T03:13:10;2.30;70.40
9425;DHT22;17139;52.140;11.636;2022-12-07T03:15:45;2.40;70.10
9425;DHT22;17139;52.140;11.636;2022-12-07T03:18:17;2.40;69.80
9425;DHT22;17139;52.140;11.636;2022-12-07T03:20:46;3.10;68.60
9425;DHT22;17139;52.140;11.636;2022-12-07T03:23:16;2.90;68.40
9425;DHT22;17139;52.140;11.636;2022-12-07T03:25:47;2.70;69.00
9425;DHT22;17139;52.140;11.636;2022-12-07T03:28:18;2.60;69.40
9425;DHT22;17139;52.140;11.636;2022-12-07T03:30:51;2.50;69.70
9425;DHT22;17139;52.140;11.636;2022-12-07T03:33:22;2.50;70.00
9425;DHT22;17139;52.140;11.636;2022-12-07T03:35:58;2.40;70.10
9425;DHT22;17139;52.140;11.636;2022-12-07T03:38:31;2.40;70.10
9425;DHT22;17139;52.140;11.636;2022-12-07T03:41:03;2.40;70.30
9425;DHT22;17139;52.140;11.636;2022-12-07T03:43:32;2.40;70.30
9425;DHT22;17139;52.140;11.636;2022-12-07T03:46:07;2.40;70.30
9425;DHT22;17139;52.140;11.636;2022-12-07T03:48:47;2.40;70.30
9425;DHT22;17139;52.140;11.636;2022-12-07T03:51:24;2.40;70.30
9425;DHT22;17139;52.140;11.636;2022-12-07T03:53:57;3.00;69.50
9425;DHT22;17139;52.140;11.636;2022-12-07T03:56:26;2.90;69.10
9425;DHT22;17139;52.140;11.636;2022-12-07T03:58:54;2.70;69.30
9425;DHT22;17139;52.140;11.636;2022-12-07T04:01:24;2.60;69.70
9425;DHT22;17139;52.140;11.636;2022-12-07T04:03:51;2.60;70.00
9425;DHT22;17139;52.140;11.636;2022-12-07T04:06:18;2.60;70.20
9425;DHT22;17139;52.140;11.636;2022-12-07T04:08:45;2.60;70.20
9425;DHT22;17139;52.140;11.636;2022-12-07T04:11:12;2.50;70.20
9425;DHT22;17139;52.140;11.636;2022-12-07T04:13:40;2.60;70.30
9425;DHT22;17139;52.140;11.636;2022-12-07T04:16:25;2.50;70.30
9425;DHT22;17139;52.140;11.636;2022-12-07T04:18:52;2.50;70.30
9425;DHT22;17139;52.140;11.636;2022-12-07T04:21:19;2.50;70.30
9425;DHT22;17139;52.140;11.636;2022-12-07T04:23:46;2.40;70.40
9425;DHT22;17139;52.140;11.636;2022-12-07T04:26:14;2.70;70.30
9425;DHT22;17139;52.140;11.636;2022-12-07T04:28:41;3.20;69.20
9425;DHT22;17139;52.140;11.636;2022-12-07T04:31:08;3.10;68.90
9425;DHT22;17139;52.140;11.636;2022-12-07T04:33:37;2.90;69.40
9425;DHT22;17139;52.140;11.636;2022-12-07T04:36:05;2.70;69.80
9425;DHT22;17139;52.140;11.636;2022-12-07T04:38:32;2.70;70.20
9425;DHT22;17139;52.140;11.636;2022-12-07T04:41:04;2.50;70.40
9425;DHT22;17139;52.140;11.636;2022-12-07T04:43:31;2.50;70.60
9425;DHT22;17139;52.140;11.636;2022-12-07T04:45:58;2.40;70.50
9425;DHT22;17139;52.140;11.636;2022-12-07T04:48:26;2.40;70.50
9425;DHT22;17139;52.140;11.636;2022-12-07T04:50:54;2.30;70.50
9425;DHT22;17139;52.140;11.636;2022-12-07T04:53:21;2.30;70.70
9425;DHT22;17139;52.140;11.636;2022-12-07T04:55:48;2.30;70.70
9425;DHT22;17139;52.140;11.636;2022-12-07T04:58:15;2.30;70.70
9425;DHT22;17139;52.140;11.636;2022-12-07T05:00:42;2.30;70.70
9425;DHT22;17139;52.140;11.636;2022-12-07T05:03:09;2.30;70.70
9425;DHT22;17139;52.140;11.636;2022-12-07T05:05:40;2.30;70.70
9425;DHT22;17139;52.140;11.636;2022-12-07T05:08:08;2.30;70.50
9425;DHT22;17139;52.140;11.636;2022-12-07T05:10:35;2.20;70.60
9425;DHT22;17139;52.140;11.636;2022-12-07T05:13:02;2.20;70.90
9425;DHT22;17139;52.140;11.636;2022-12-07T05:15:29;2.20;70.90
9425;DHT22;17139;52.140;11.636;2022-12-07T05:17:56;2.20;70.90
9425;DHT22;17139;52.140;11.636;2022-12-07T05:20:23;2.30;70.90
9425;DHT22;17139;52.140;11.636;2022-12-07T05:22:50;2.20;70.80
9425;DHT22;17139;52.140;11.636;2022-12-07T05:25:19;2.20;70.80
9425;DHT22;17139;52.140;11.636;2022-12-07T05:27:46;2.20;71.00
9425;DHT22;17139;52.140;11.636;2022-12-07T05:30:14;2.20;71.10
9425;DHT22;17139;52.140;11.636;2022-12-07T05:32:41;2.20;71.10
9425;DHT22;17139;52.140;11.636;2022-12-07T05:35:09;2.20;71.10
9425;DHT22;17139;52.140;11.636;2022-12-07T05:37:36;2.50;70.80
9425;DHT22;17139;52.140;11.636;2022-12-07T05:40:04;2.50;70.30
9425;DHT22;17139;52.140;11.636;2022-12-07T05:42:32;2.70;70.50
9425;DHT22;17139;52.140;11.636;2022-12-07T05:44:59;2.60;70.10
9425;DHT22;17139;52.140;11.636;2022-12-07T05:47:26;2.50;70.40
9425;DHT22;17139;52.140;11.636;2022-12-07T05:49:53;3.20;69.60
9425;DHT22;17139;52.140;11.636;2022-12-07T05:52:21;3.00;69.10
9425;DHT22;17139;52.140;11.636;2022-12-07T05:54:48;2.90;69.70
9425;DHT22;17139;52.140;11.636;2022-12-07T05:57:15;2.70;70.00
9425;DHT22;17139;52.140;11.636;2022-12-07T05:59:43;2.60;70.30
9425;DHT22;17139;52.140;11.636;2022-12-07T06:02:11;2.50;70.60
9425;DHT22;17139;52.140;11.636;2022-12-07T06:04:40;2.50;70.70
9425;DHT22;17139;52.140;11.636;2022-12-07T06:07:07;2.50;70.80
9425;DHT22;17139;52.140;11.636;2022-12-07T06:09:35;2.50;70.80
9425;DHT22;17139;52.140;11.636;2022-12-07T06:12:03;2.70;70.70
9425;DHT22;17139;52.140;11.636;2022-12-07T06:14:50;2.70;70.10
9425;DHT22;17139;52.140;11.636;2022-12-07T06:17:17;2.60;70.50
9425;DHT22;17139;52.140;11.636;2022-12-07T06:19:44;2.60;70.70
9425;DHT22;17139;52.140;11.636;2022-12-07T06:22:11;2.60;71.40
9425;DHT22;17139;52.140;11.636;2022-12-07T06:24:39;2.50;70.70
9425;DHT22;17139;52.140;11.636;2022-12-07T06:27:06;2.50;70.80
9425;DHT22;17139;52.140;11.636;2022-12-07T06:29:33;2.50;70.90
9425;DHT22;17139;52.140;11.636;2022-12-07T06:32:02;2.50;71.00
9425;DHT22;17139;52.140;11.636;2022-12-07T06:34:29;2.50;71.00
9425;DHT22;17139;52.140;11.636;2022-12-07T06:36:56;2.50;71.00
9425;DHT22;17139;52.140;11.636;2022-12-07T06:39:25;2.50;71.00
9425;DHT22;17139;52.140;11.636;2022-12-07T06:41:53;2.50;71.00
9425;DHT22;17139;52.140;11.636;2022-12-07T06:44:20;3.30;69.80
9425;DHT22;17139;52.140;11.636;2022-12-07T06:46:48;3.10;69.40
9425;DHT22;17139;52.140;11.636;2022-12-07T06:49:17;3.00;70.00
9425;DHT22;17139;52.140;11.636;2022-12-07T06:51:44;2.80;70.30
9425;DHT22;17139;52.140;11.636;2022-12-07T06:54:12;2.80;71.30
9425;DHT22;17139;52.140;11.636;2022-12-07T06:56:39;2.70;70.80
9425;DHT22;17139;52.140;11.636;2022-12-07T06:59:09;2.70;70.80
9425;DHT22;17139;52.140;11.636;2022-12-07T07:01:36;2.70;70.80
9425;DHT22;17139;52.140;11.636;2022-12-07T07:04:04;2.70;70.80
9425;DHT22;17139;52.140;11.636;2022-12-07T07:06:32;2.70;70.80
9425;DHT22;17139;52.140;11.636;2022-12-07T07:08:59;2.80;70.90
9425;DHT22;17139;52.140;11.636;2022-12-07T07:11:26;2.80;70.60
9425;DHT22;17139;52.140;11.636;2022-12-07T07:13:53;2.70;70.80
9425;DHT22;17139;52.140;11.636;2022-12-07T07:16:23;3.10;70.20
9425;DHT22;17139;52.140;11.636;2022-12-07T07:18:50;3.00;69.60
9425;DHT22;17139;52.140;11.636;2022-12-07T07:21:17;2.90;70.10
9425;DHT22;17139;52.140;11.636;2022-12-07T07:23:45;2.80;70.30
9425;DHT22;17139;52.140;11.636;2022-12-07T07:26:12;2.80;70.50
9425;DHT22;17139;52.140;11.636;2022-12-07T07:28:40;2.80;70.60
9425;DHT22;17139;52.140;11.636;2022-12-07T07:31:07;2.80;70.80
9425;DHT22;17139;52.140;11.636;2022-12-07T07:33:34;2.80;70.90
9425;DHT22;17139;52.140;11.636;2022-12-07T07:36:01;2.80;70.90
9425;DHT22;17139;52.140;11.636;2022-12-07T07:38:28;2.70;70.80
9425;DHT22;17139;52.140;11.636;2022-12-07T07:40:56;2.80;70.80
9425;DHT22;17139;52.140;11.636;2022-12-07T07:43:23;2.70;70.80
9425;DHT22;17139;52.140;11.636;2022-12-07T07:45:50;3.50;69.00
9425;DHT22;17139;52.140;11.636;2022-12-07T07:48:17;3.70;68.00
9425;DHT22;17139;52.140;11.636;2022-12-07T07:50:44;3.50;68.30
9425;DHT22;17139;52.140;11.636;2022-12-07T07:53:11;3.60;68.50
9425;DHT22;17139;52.140;11.636;2022-12-07T07:55:38;3.40;68.70
9425;DHT22;17139;52.140;11.636;2022-12-07T07:58:07;3.30;69.40
9425;DHT22;17139;52.140;11.636;2022-12-07T08:00:34;3.20;69.70
9425;DHT22;17139;52.140;11.636;2022-12-07T08:03:01;3.00;70.00
9425;DHT22;17139;52.140;11.636;2022-12-07T08:05:28;3.00;70.30
9425;DHT22;17139;52.140;11.636;2022-12-07T08:07:55;3.30;69.80
9425;DHT22;17139;52.140;11.636;2022-12-07T08:10:23;3.30;69.60
9425;DHT22;17139;52.140;11.636;2022-12-07T08:12:51;3.10;69.70
9425;DHT22;17139;52.140;11.636;2022-12-07T08:15:38;3.00;70.00
9425;DHT22;17139;52.140;11.636;2022-12-07T08:18:06;3.00;70.40
9425;DHT22;17139;52.140;11.636;2022-12-07T08:20:34;2.90;70.60
9425;DHT22;17139;52.140;11.636;2022-12-07T08:23:01;2.90;70.70
9425;DHT22;17139;52.140;11.636;2022-12-07T08:25:29;2.90;70.80
9425;DHT22;17139;52.140;11.636;2022-12-07T08:27:56;2.90;70.80
9425;DHT22;17139;52.140;11.636;2022-12-07T08:30:23;2.90;70.70
9425;DHT22;17139;52.140;11.636;2022-12-07T08:32:52;3.00;70.70
9425;DHT22;17139;52.140;11.636;2022-12-07T08:35:19;3.70;68.90
9425;DHT22;17139;52.140;11.636;2022-12-07T08:37:46;3.60;68.70
9425;DHT22;17139;52.140;11.636;2022-12-07T08:40:14;3.40;69.20
9425;DHT22;17139;52.140;11.636;2022-12-07T08:42:41;3.30;69.70
9425;DHT22;17139;52.140;11.636;2022-12-07T08:45:12;3.20;70.00
9425;DHT22;17139;52.140;11.636;2022-12-07T08:47:43;3.20;70.30
9425;DHT22;17139;52.140;11.636;2022-12-07T08:50:14;3.20;70.30
9425;DHT22;17139;52.140;11.636;2022-12-07T08:52:41;3.20;70.30
9425;DHT22;17139;52.140;11.636;2022-12-07T08:55:10;3.20;70.40
9425;DHT22;17139;52.140;11.636;2022-12-07T08:57:38;3.60;69.60
9425;DHT22;17139;52.140;11.636;2022-12-07T09:00:07;4.30;67.50
9425;DHT22;17139;52.140;11.636;2022-12-07T09:02:35;4.00;67.80
9425;DHT22;17139;52.140;11.636;2022-12-07T09:05:02;3.70;68.70
9425;DHT22;17139;52.140;11.636;2022-12-07T09:07:32;3.50;69.20
9425;DHT22;17139;52.140;11.636;2022-12-07T09:10:00;3.50;69.80
9425;DHT22;17139;52.140;11.636;2022-12-07T09:12:27;3.40;69.80
9425;DHT22;17139;52.140;11.636;2022-12-07T09:14:54;3.30;70.00
9425;DHT22;17139;52.140;11.636;2022-12-07T09:17:21;4.10;68.20
9425;DHT22;17139;52.140;11.636;2022-12-07T09:19:48;3.90;68.30
9425;DHT22;17139;52.140;11.636;2022-12-07T09:22:15;3.70;69.00
9425;DHT22;17139;52.140;11.636;2022-12-07T09:24:44;3.50;69.40
9425;DHT22;17139;52.140;11.636;2022-12-07T09:27:11;4.00;68.90
9425;DHT22;17139;52.140;11.636;2022-12-07T09:29:38;3.80;68.70
9425;DHT22;17139;52.140;11.636;2022-12-07T09:32:05;3.70;69.20
9425;DHT22;17139;52.140;11.636;2022-12-07T09:34:33;3.60;69.50
9425;DHT22;17139;52.140;11.636;2022-12-07T09:37:01;3.60;70.50
9425;DHT22;17139;52.140;11.636;2022-12-07T09:39:28;3.60;69.90
9425;DHT22;17139;52.140;11.636;2022-12-07T09:41:57;3.60;70.00
9425;DHT22;17139;52.140;11.636;2022-12-07T09:44:26;3.60;70.00
9425;DHT22;17139;52.140;11.636;2022-12-07T09:46:54;3.60;70.00
9425;DHT22;17139;52.140;11.636;2022-12-07T09:49:23;3.60;70.00
9425;DHT22;17139;52.140;11.636;2022-12-07T09:52:02;4.00;69.10
9425;DHT22;17139;52.140;11.636;2022-12-07T09:54:30;4.40;67.80
9425;DHT22;17139;52.140;11.636;2022-12-07T09:56:59;4.10;68.10
9425;DHT22;17139;52.140;11.636;2022-12-07T09:59:26;4.00;68.90
9425;DHT22;17139;52.140;11.636;2022-12-07T10:01:53;3.80;69.30
9425;DHT22;17139;52.140;11.636;2022-12-07T10:04:22;3.70;69.60
9425;DHT22;17139;52.140;11.636;2022-12-07T10:06:50;3.70;69.90
9425;DHT22;17139;52.140;11.636;2022-12-07T10:09:19;3.70;70.10
9425;DHT22;17139;52.140;11.636;2022-12-07T10:12:06;3.70;70.10
9425;DHT22;17139;52.140;11.636;2022-12-07T10:14:35;3.70;70.10
9425;DHT22;17139;52.140;11.636;2022-12-07T10:17:30;4.10;69.30
9425;DHT22;17139;52.140;11.636;2022-12-07T10:20:19;4.10;69.00
9425;DHT22;17139;52.140;11.636;2022-12-07T10:22:58;3.90;69.40
9425;DHT22;17139;52.140;11.636;2022-12-07T10:25:28;4.60;67.90
9425;DHT22;17139;52.140;11.636;2022-12-07T10:28:00;4.40;68.10
9425;DHT22;17139;52.140;11.636;2022-12-07T10:30:28;4.30;68.70
9425;DHT22;17139;52.140;11.636;2022-12-07T10:32:55;4.20;69.20
9425;DHT22;17139;52.140;11.636;2022-12-07T10:35:26;4.20;69.60
9425;DHT22;17139;52.140;11.636;2022-12-07T10:37:54;4.20;69.60
9425;DHT22;17139;52.140;11.636;2022-12-07T10:40:31;4.20;69.50
9425;DHT22;17139;52.140;11.636;2022-12-07T10:43:13;4.20;69.60
9425;DHT22;17139;52.140;11.636;2022-12-07T10:48:52;4.20;69.60
9425;DHT22;17139;52.140;11.636;2022-12-07T10:51:25;4.80;67.70
9425;DHT22;17139;52.140;11.636;2022-12-07T10:54:02;4.60;68.00
9425;DHT22;17139;52.140;11.636;2022-12-07T10:56:54;4.40;68.60
9425;DHT22;17139;52.140;11.636;2022-12-07T10:59:55;4.40;69.20
9425;DHT22;17139;52.140;11.636;2022-12-07T11:02:36;4.30;69.60
9425;DHT22;17139;52.140;11.636;2022-12-07T11:05:13;4.90;68.00
9425;DHT22;17139;52.140;11.636;2022-12-07T11:07:50;4.70;68.80
9425;DHT22;17139;52.140;11.636;2022-12-07T11:10:27;4.70;67.90
9425;DHT22;17139;52.140;11.636;2022-12-07T11:13:15;5.40;65.50
9425;DHT22;17139;52.140;11.636;2022-12-07T11:16:00;5.00;66.50
9425;DHT22;17139;52.140;11.636;2022-12-07T11:18:32;4.60;67.90
9425;DHT22;17139;52.140;11.636;2022-12-07T11:21:07;4.40;68.60
9425;DHT22;17139;52.140;11.636;2022-12-07T11:23:47;4.40;69.10
9425;DHT22;17139;52.140;11.636;2022-12-07T11:26:23;5.10;67.40
9425;DHT22;17139;52.140;11.636;2022-12-07T11:29:03;5.00;67.80
9425;DHT22;17139;52.140;11.636;2022-12-07T11:31:38;4.90;68.30
9425;DHT22;17139;52.140;11.636;2022-12-07T11:34:19;4.90;68.70
9425;DHT22;17139;52.140;11.636;2022-12-07T11:36:52;4.70;68.70
9425;DHT22;17139;52.140;11.636;2022-12-07T11:39:26;4.70;69.00
9425;DHT22;17139;52.140;11.636;2022-12-07T11:42:03;4.60;69.00
9425;DHT22;17139;52.140;11.636;2022-12-07T11:44:35;4.60;69.20
9425;DHT22;17139;52.140;11.636;2022-12-07T11:47:08;4.90;68.40
9425;DHT22;17139;52.140;11.636;2022-12-07T11:49:43;5.50;66.10
9425;DHT22;17139;52.140;11.636;2022-12-07T11:52:18;5.30;66.90
9425;DHT22;17139;52.140;11.636;2022-12-07T11:54:47;5.00;68.40
9425;DHT22;17139;52.140;11.636;2022-12-07T11:57:22;4.90;68.40
9425;DHT22;17139;52.140;11.636;2022-12-07T11:59:55;4.80;68.70
9425;DHT22;17139;52.140;11.636;2022-12-07T12:02:28;4.70;68.90
9425;DHT22;17139;52.140;11.636;2022-12-07T12:05:07;4.70;68.90
9425;DHT22;17139;52.140;11.636;2022-12-07T12:07:39;4.90;68.00
9425;DHT22;17139;52.140;11.636;2022-12-07T12:10:17;5.50;66.40
9425;DHT22;17139;52.140;11.636;2022-12-07T12:13:10;5.20;66.70
9425;DHT22;17139;52.140;11.636;2022-12-07T12:15:51;5.00;67.70
9425;DHT22;17139;52.140;11.636;2022-12-07T12:18:39;4.90;68.50
9425;DHT22;17139;52.140;11.636;2022-12-07T12:21:10;4.80;68.80
9425;DHT22;17139;52.140;11.636;2022-12-07T12:23:42;4.70;68.80
9425;DHT22;17139;52.140;11.636;2022-12-07T12:26:16;4.70;68.90
9425;DHT22;17139;52.140;11.636;2022-12-07T12:28:52;5.30;66.70
9425;DHT22;17139;52.140;11.636;2022-12-07T12:31:33;6.00;64.00
9425;DHT22;17139;52.140;11.636;2022-12-07T12:36:55;5.20;66.70
9425;DHT22;17139;52.140;11.636;2022-12-07T12:39:22;4.90;68.40
9425;DHT22;17139;52.140;11.636;2022-12-07T12:41:57;4.80;68.30
9425;DHT22;17139;52.140;11.636;2022-12-07T12:47:59;4.80;68.80
9425;DHT22;17139;52.140;11.636;2022-12-07T12:50:32;5.70;65.10
9425;DHT22;17139;52.140;11.636;2022-12-07T12:53:12;5.30;66.50
9425;DHT22;17139;52.140;11.636;2022-12-07T12:56:07;5.10;67.30
9425;DHT22;17139;52.140;11.636;2022-12-07T12:58:44;4.90;68.00
9425;DHT22;17139;52.140;11.636;2022-12-07T13:01:45;4.80;68.70
9425;DHT22;17139;52.140;11.636;2022-12-07T13:04:29;4.80;68.70
9425;DHT22;17139;52.140;11.636;2022-12-07T13:06:59;4.70;69.00
9425;DHT22;17139;52.140;11.636;2022-12-07T13:09:28;4.60;69.30
9425;DHT22;17139;52.140;11.636;2022-12-07T13:12:13;4.70;69.30
9425;DHT22;17139;52.140;11.636;2022-12-07T13:20:50;4.70;68.50
9425;DHT22;17139;52.140;11.636;2022-12-07T13:23:27;4.60;68.80
9425;DHT22;17139;52.140;11.636;2022-12-07T13:26:03;4.50;69.10
9425;DHT22;17139;52.140;11.636;2022-12-07T13:28:35;4.40;69.00
9425;DHT22;17139;52.140;11.636;2022-12-07T13:31:21;4.40;69.20
9425;DHT22;17139;52.140;11.636;2022-12-07T13:33:49;4.30;69.00
9425;DHT22;17139;52.140;11.636;2022-12-07T13:36:20;4.20;69.10
9425;DHT22;17139;52.140;11.636;2022-12-07T13:38:52;4.10;69.30
9425;DHT22;17139;52.140;11.636;2022-12-07T13:41:20;4.00;69.50
9425;DHT22;17139;52.140;11.636;2022-12-07T13:43:54;4.40;68.30
9425;DHT22;17139;52.140;11.636;2022-12-07T13:46:34;5.10;65.40
9425;DHT22;17139;52.140;11.636;2022-12-07T13:49:02;4.70;66.40
9425;DHT22;17139;52.140;11.636;2022-12-07T13:51:41;4.40;67.70
9425;DHT22;17139;52.140;11.636;2022-12-07T13:54:11;4.20;68.50
9425;DHT22;17139;52.140;11.636;2022-12-07T13:56:40;4.10;68.90
9425;DHT22;17139;52.140;11.636;2022-12-07T13:59:14;4.10;69.30
9425;DHT22;17139;52.140;11.636;2022-12-07T14:01:42;4.00;69.40
9425;DHT22;17139;52.140;11.636;2022-12-07T14:04:30;4.00;69.70
9425;DHT22;17139;52.140;11.636;2022-12-07T14:06:57;4.00;69.70
9425;DHT22;17139;52.140;11.636;2022-12-07T14:09:28;4.00;69.60
9425;DHT22;17139;52.140;11.636;2022-12-07T14:11:57;4.10;69.50
9425;DHT22;17139;52.140;11.636;2022-12-07T14:14:26;4.00;69.60
9425;DHT22;17139;52.140;11.636;2022-12-07T14:17:00;4.00;69.80
9425;DHT22;17139;52.140;11.636;2022-12-07T14:19:51;3.90;69.90
9425;DHT22;17139;52.140;11.636;2022-12-07T14:22:31;3.90;69.90
9425;DHT22;17139;52.140;11.636;2022-12-07T14:28:23;3.90;70.30
9425;DHT22;17139;52.140;11.636;2022-12-07T14:30:51;4.00;70.10
9425;DHT22;17139;52.140;11.636;2022-12-07T14:33:18;4.40;68.40
9425;DHT22;17139;52.140;11.636;2022-12-07T14:35:46;4.30;68.40
9425;DHT22;17139;52.140;11.636;2022-12-07T14:38:13;4.20;68.90
9425;DHT22;17139;52.140;11.636;2022-12-07T14:40:42;4.00;69.20
9425;DHT22;17139;52.140;11.636;2022-12-07T14:43:11;4.00;69.50
9425;DHT22;17139;52.140;11.636;2022-12-07T14:45:39;3.90;70.40
9425;DHT22;17139;52.140;11.636;2022-12-07T14:48:07;3.80;69.90
9425;DHT22;17139;52.140;11.636;2022-12-07T14:50:40;3.70;70.10
9425;DHT22;17139;52.140;11.636;2022-12-07T14:53:12;4.20;68.70
9425;DHT22;17139;52.140;11.636;2022-12-07T14:55:39;4.90;66.40
9425;DHT22;17139;52.140;11.636;2022-12-07T14:58:12;4.50;67.00
9425;DHT22;17139;52.140;11.636;2022-12-07T15:00:40;4.20;68.20
9425;DHT22;17139;52.140;11.636;2022-12-07T15:03:07;4.00;69.00
9425;DHT22;17139;52.140;11.636;2022-12-07T15:05:35;3.80;69.40
9425;DHT22;17139;52.140;11.636;2022-12-07T15:08:02;3.80;69.70
9425;DHT22;17139;52.140;11.636;2022-12-07T15:10:32;3.70;69.90
9425;DHT22;17139;52.140;11.636;2022-12-07T15:13:01;3.80;70.20
9425;DHT22;17139;52.140;11.636;2022-12-07T15:15:43;3.90;69.70
9425;DHT22;17139;52.140;11.636;2022-12-07T15:18:10;3.80;69.40
9425;DHT22;17139;52.140;11.636;2022-12-07T15:20:37;3.80;69.70
9425;DHT22;17139;52.140;11.636;2022-12-07T15:23:05;3.70;69.90
9425;DHT22;17139;52.140;11.636;2022-12-07T15:25:32;4.00;69.10
9425;DHT22;17139;52.140;11.636;2022-12-07T15:27:59;3.90;68.80
9425;DHT22;17139;52.140;11.636;2022-12-07T15:30:26;3.80;69.20
9425;DHT22;17139;52.140;11.636;2022-12-07T15:32:54;3.80;69.50
9425;DHT22;17139;52.140;11.636;2022-12-07T15:35:21;3.70;69.90
9425;DHT22;17139;52.140;11.636;2022-12-07T15:37:49;3.70;70.10
9425;DHT22;17139;52.140;11.636;2022-12-07T15:40:16;3.70;70.10
9425;DHT22;17139;52.140;11.636;2022-12-07T15:42:43;3.70;70.00
9425;DHT22;17139;52.140;11.636;2022-12-07T15:45:10;3.70;70.10
9425;DHT22;17139;52.140;11.636;2022-12-07T15:47:38;3.60;70.00
9425;DHT22;17139;52.140;11.636;2022-12-07T15:50:09;4.00;68.80
9425;DHT22;17139;52.140;11.636;2022-12-07T15:52:36;3.90;68.70
9425;DHT22;17139;52.140;11.636;2022-12-07T15:55:04;3.80;69.20
9425;DHT22;17139;52.140;11.636;2022-12-07T15:57:32;3.70;69.60
9425;DHT22;17139;52.140;11.636;2022-12-07T16:00:00;4.10;68.10
9425;DHT22;17139;52.140;11.636;2022-12-07T16:02:27;4.00;68.10
9425;DHT22;17139;52.140;11.636;2022-12-07T16:04:54;3.80;68.90
9425;DHT22;17139;52.140;11.636;2022-12-07T16:07:22;3.60;69.30
9425;DHT22;17139;52.140;11.636;2022-12-07T16:09:50;3.50;69.50
9425;DHT22;17139;52.140;11.636;2022-12-07T16:12:17;3.40;69.70
9425;DHT22;17139;52.140;11.636;2022-12-07T16:14:44;3.40;69.80
9425;DHT22;17139;52.140;11.636;2022-12-07T16:17:11;3.30;69.80
9425;DHT22;17139;52.140;11.636;2022-12-07T16:19:38;3.20;69.70
9425;DHT22;17139;52.140;11.636;2022-12-07T16:22:06;3.90;67.30
9425;DHT22;17139;52.140;11.636;2022-12-07T16:24:34;3.70;67.50
9425;DHT22;17139;52.140;11.636;2022-12-07T16:27:01;3.40;68.20
9425;DHT22;17139;52.140;11.636;2022-12-07T16:29:28;3.30;68.90
9425;DHT22;17139;52.140;11.636;2022-12-07T16:31:55;3.10;69.10